Time;durP1;ratioP1;P1;durP2;ratioP2;P2;SDS_P1;SDS_P2;PMS_P1;PMS_P2;Temp;Humidity;BMP_temperature;BMP_pressure;BME280_temperature;BME280_humidity;BME280_pressure;Samples;Min_cycle;Max_cycle;Signal;HPM_P1;HPM_P2
2022/04/08 00:00:06;;;;;;;;;;;8.30;99.90;;;;;;2079872;28;19913;-69
2022/04/08 00:01:07;;;;;;;;;;;8.30;99.90;;;;;;2079411;28;20488;-69
2022/04/08 00:02:07;;;;;;;;;;;8.30;99.90;;;;;;2080098;28;19913;-69
2022/04/08 00:03:09;;;;;;;;;;;8.30;99.90;;;;;;2080742;28;19913;-69
2022/04/08 00:04:09;;;;;;;;;;;8.30;99.90;;;;;;2083044;28;20058;-69
2022/04/08 00:05:10;;;;;;;;;;;8.30;99.90;;;;;;2078386;28;19917;-69
2022/04/08 00:06:11;;;;;;;;;;;8.20;99.90;;;;;;2076517;28;19972;-69
2022/04/08 00:07:11;;;;;;;;;;;8.20;99.90;;;;;;2078766;28;20391;-69
2022/04/08 00:08:12;;;;;;;;;;;8.20;99.90;;;;;;2078436;28;19916;-69
2022/04/08 00:09:12;;;;;;;;;;;8.20;99.90;;;;;;2079968;28;19910;-68
2022/04/08 00:10:13;;;;;;;;;;;8.20;99.90;;;;;;2077087;28;20308;-69
2022/04/08 00:11:13;;;;;;;;;;;8.20;99.90;;;;;;2080757;28;20003;-68
2022/04/08 00:12:14;;;;;;;;;;;8.20;99.90;;;;;;2083205;28;19909;-69
2022/04/08 00:13:15;;;;;;;;;;;8.20;99.90;;;;;;2081569;28;19909;-69
2022/04/08 00:14:15;;;;;;;;;;;8.20;99.90;;;;;;2082159;28;19916;-69
2022/04/08 00:15:16;;;;;;;;;;;8.10;99.90;;;;;;2081203;28;19921;-69
2022/04/08 00:16:16;;;;;;;;;;;8.10;99.90;;;;;;2077344;28;19913;-69
2022/04/08 00:17:17;;;;;;;;;;;8.10;99.90;;;;;;2080434;28;19917;-69
2022/04/08 00:18:17;;;;;;;;;;;8.10;99.90;;;;;;2076564;28;19910;-69
2022/04/08 00:19:18;;;;;;;;;;;8.10;99.90;;;;;;2083294;28;19917;-69
2022/04/08 00:20:19;;;;;;;;;;;8.10;99.90;;;;;;2081733;28;19909;-69
2022/04/08 00:21:19;;;;;;;;;;;8.10;99.90;;;;;;2078702;28;19988;-69
2022/04/08 00:22:21;;;;;;;;;;;8.10;99.90;;;;;;2082254;28;19923;-69
2022/04/08 00:23:22;;;;;;;;;;;8.10;99.90;;;;;;2078974;28;19992;-69
2022/04/08 00:24:22;;;;;;;;;;;8.10;99.90;;;;;;2081435;28;19913;-69
2022/04/08 00:25:23;;;;;;;;;;;8.10;99.90;;;;;;2072762;28;19968;-68
2022/04/08 00:26:23;;;;;;;;;;;8.00;99.90;;;;;;2077370;28;19910;-69
2022/04/08 00:27:23;;;;;;;;;;;8.00;99.90;;;;;;2073788;28;19916;-69
2022/04/08 00:28:24;;;;;;;;;;;8.00;99.90;;;;;;2072104;28;19936;-69
2022/04/08 00:29:24;;;;;;;;;;;8.00;99.90;;;;;;2079376;28;19914;-69
2022/04/08 00:30:25;;;;;;;;;;;8.00;99.90;;;;;;2082557;28;19916;-68
2022/04/08 00:31:26;;;;;;;;;;;8.00;99.90;;;;;;2080276;28;20134;-69
2022/04/08 00:32:27;;;;;;;;;;;8.00;99.90;;;;;;2081561;28;19920;-69
2022/04/08 00:33:27;;;;;;;;;;;8.00;99.90;;;;;;2078790;28;19916;-69
2022/04/08 00:34:28;;;;;;;;;;;8.00;99.90;;;;;;2078902;28;19921;-69
2022/04/08 00:35:28;;;;;;;;;;;7.90;99.90;;;;;;2084562;28;20315;-69
2022/04/08 00:36:28;;;;;;;;;;;7.90;99.90;;;;;;2087535;28;19948;-69
2022/04/08 00:37:29;;;;;;;;;;;7.90;99.90;;;;;;2081910;28;20349;-69
2022/04/08 00:38:29;;;;;;;;;;;7.90;99.90;;;;;;2082389;28;19909;-68
2022/04/08 00:39:30;;;;;;;;;;;7.90;99.90;;;;;;2080127;28;20374;-69
2022/04/08 00:40:30;;;;;;;;;;;7.90;99.90;;;;;;2081852;28;19910;-69
2022/04/08 00:41:31;;;;;;;;;;;7.90;99.90;;;;;;2081921;28;20353;-69
2022/04/08 00:42:31;;;;;;;;;;;7.90;99.90;;;;;;2082516;28;20182;-69
2022/04/08 00:43:33;;;;;;;;;;;7.90;99.90;;;;;;2082651;28;19917;-69
2022/04/08 00:44:34;;;;;;;;;;;7.90;99.90;;;;;;2083962;28;19916;-68
2022/04/08 00:45:34;;;;;;;;;;;7.90;99.90;;;;;;2082971;28;19917;-69
2022/04/08 00:46:37;;;;;;;;;;;7.90;99.90;;;;;;2080843;28;20287;-68
2022/04/08 00:47:41;;;;;;;;;;;7.90;99.90;;;;;;2080648;28;19917;-69
2022/04/08 00:48:41;;;;;;;;;;;7.90;99.90;;;;;;2081879;28;20036;-68
2022/04/08 00:49:42;;;;;;;;;;;7.90;99.90;;;;;;2077661;28;19913;-69
2022/04/08 00:50:44;;;;;;;;;;;7.90;99.90;;;;;;2084647;28;19909;-69
2022/04/08 00:51:44;;;;;;;;;;;7.90;99.90;;;;;;2083056;28;20337;-69
2022/04/08 00:52:46;;;;;;;;;;;7.90;99.90;;;;;;2083913;28;19913;-69
2022/04/08 00:53:47;;;;;;;;;;;7.80;99.90;;;;;;2083678;28;19923;-69
2022/04/08 00:54:47;;;;;;;;;;;7.80;99.90;;;;;;2079614;28;19920;-69
2022/04/08 00:55:48;;;;;;;;;;;7.80;99.90;;;;;;2079069;28;20431;-68
2022/04/08 00:56:49;;;;;;;;;;;7.80;99.90;;;;;;2081286;28;19917;-69
2022/04/08 00:57:49;;;;;;;;;;;7.80;99.90;;;;;;2077569;28;20292;-68
2022/04/08 00:58:50;;;;;;;;;;;7.70;99.90;;;;;;2083026;28;20779;-69
2022/04/08 00:59:51;;;;;;;;;;;7.80;99.90;;;;;;2084421;28;19912;-69
2022/04/08 01:00:51;;;;;;;;;;;7.80;99.90;;;;;;2083732;28;19909;-69
2022/04/08 01:01:52;;;;;;;;;;;7.70;99.90;;;;;;2083647;28;19913;-68
2022/04/08 01:02:52;;;;;;;;;;;7.70;99.90;;;;;;2080092;28;19909;-69
2022/04/08 01:03:53;;;;;;;;;;;7.70;99.90;;;;;;2079578;28;19909;-68
2022/04/08 01:04:54;;;;;;;;;;;7.70;99.90;;;;;;2079238;28;19917;-68
2022/04/08 01:05:54;;;;;;;;;;;7.70;99.90;;;;;;2081100;28;19939;-69
2022/04/08 01:06:55;;;;;;;;;;;7.70;99.90;;;;;;2084368;28;19985;-69
2022/04/08 01:07:55;;;;;;;;;;;7.70;99.90;;;;;;2080726;28;19924;-69
2022/04/08 01:08:56;;;;;;;;;;;7.70;99.90;;;;;;2082367;28;19978;-68
2022/04/08 01:09:57;;;;;;;;;;;7.70;99.90;;;;;;2083035;28;19948;-69
2022/04/08 01:10:59;;;;;;;;;;;7.70;99.90;;;;;;2080241;28;19955;-68
2022/04/08 01:12:00;;;;;;;;;;;7.70;99.90;;;;;;2081331;28;19913;-68
2022/04/08 01:13:00;;;;;;;;;;;7.70;99.90;;;;;;2078718;28;19948;-68
2022/04/08 01:14:10;;;;;;;;;;;7.70;99.90;;;;;;2078899;28;19956;-69
2022/04/08 01:15:11;;;;;;;;;;;7.70;99.90;;;;;;2084091;28;19959;-69
2022/04/08 01:16:11;;;;;;;;;;;7.70;99.90;;;;;;2076964;28;19991;-69
2022/04/08 01:17:11;;;;;;;;;;;7.70;99.90;;;;;;2082911;28;19909;-69
2022/04/08 01:18:12;;;;;;;;;;;7.60;99.90;;;;;;2081367;28;20002;-68
2022/04/08 01:19:12;;;;;;;;;;;7.60;99.90;;;;;;2081101;28;19996;-68
2022/04/08 01:20:13;;;;;;;;;;;7.70;99.90;;;;;;2079146;28;19957;-69
2022/04/08 01:21:14;;;;;;;;;;;7.60;99.90;;;;;;2081283;28;19909;-69
2022/04/08 01:22:15;;;;;;;;;;;7.60;99.90;;;;;;2084592;28;19917;-69
2022/04/08 01:23:15;;;;;;;;;;;7.70;99.90;;;;;;2084123;28;19909;-69
2022/04/08 01:24:16;;;;;;;;;;;7.60;99.90;;;;;;2081989;28;20376;-69
2022/04/08 01:25:16;;;;;;;;;;;7.60;99.90;;;;;;2081409;28;20011;-68
2022/04/08 01:26:17;;;;;;;;;;;7.60;99.90;;;;;;2080479;28;20641;-68
2022/04/08 01:27:19;;;;;;;;;;;7.60;99.90;;;;;;2080981;28;19917;-68
2022/04/08 01:28:19;;;;;;;;;;;7.60;99.90;;;;;;2077739;28;20342;-68
2022/04/08 01:29:20;;;;;;;;;;;7.60;99.90;;;;;;2080863;28;19919;-68
2022/04/08 01:30:20;;;;;;;;;;;7.70;99.90;;;;;;2084912;28;19917;-68
2022/04/08 01:31:23;;;;;;;;;;;7.60;99.90;;;;;;2083506;28;19913;-68
2022/04/08 01:32:24;;;;;;;;;;;7.60;99.90;;;;;;2082988;28;20307;-68
2022/04/08 01:33:25;;;;;;;;;;;7.60;99.90;;;;;;2083195;28;19917;-68
2022/04/08 01:34:25;;;;;;;;;;;7.70;99.90;;;;;;2080298;28;19910;-68
2022/04/08 01:35:26;;;;;;;;;;;7.60;99.90;;;;;;2076073;28;19956;-68
2022/04/08 01:36:26;;;;;;;;;;;7.70;99.90;;;;;;2077590;28;19918;-68
2022/04/08 01:37:27;;;;;;;;;;;7.60;99.90;;;;;;2079117;28;19913;-68
2022/04/08 01:38:27;;;;;;;;;;;7.60;99.90;;;;;;2077413;28;20509;-68
2022/04/08 01:39:28;;;;;;;;;;;7.70;99.90;;;;;;2081477;28;19909;-68
2022/04/08 01:40:28;;;;;;;;;;;7.70;99.90;;;;;;2083578;28;20292;-68
2022/04/08 01:41:31;;;;;;;;;;;7.70;99.90;;;;;;2077853;28;19910;-68
2022/04/08 01:42:31;;;;;;;;;;;7.70;99.90;;;;;;2078693;28;19955;-68
2022/04/08 01:43:31;;;;;;;;;;;7.70;99.90;;;;;;2081277;28;19909;-68
2022/04/08 01:44:32;;;;;;;;;;;7.70;99.90;;;;;;2077582;28;19916;-68
2022/04/08 01:45:32;;;;;;;;;;;7.70;99.90;;;;;;2073881;28;19914;-68
2022/04/08 01:46:33;;;;;;;;;;;7.70;99.90;;;;;;2075696;28;19996;-68
2022/04/08 01:47:33;;;;;;;;;;;7.70;99.90;;;;;;2083098;28;19914;-68
2022/04/08 01:48:34;;;;;;;;;;;7.70;99.90;;;;;;2083232;28;19963;-68
2022/04/08 01:49:34;;;;;;;;;;;7.70;99.90;;;;;;2081886;28;19920;-68
2022/04/08 01:50:34;;;;;;;;;;;7.70;99.90;;;;;;2082340;28;19959;-68
2022/04/08 01:51:35;;;;;;;;;;;7.70;99.90;;;;;;2080938;28;21560;-68
2022/04/08 01:52:35;;;;;;;;;;;7.70;99.90;;;;;;2079098;28;19913;-68
2022/04/08 01:53:36;;;;;;;;;;;7.70;99.90;;;;;;2083577;28;19956;-67
2022/04/08 01:54:36;;;;;;;;;;;7.70;99.90;;;;;;2081233;28;19913;-68
2022/04/08 01:55:37;;;;;;;;;;;7.70;99.90;;;;;;2078107;28;20335;-68
2022/04/08 01:56:37;;;;;;;;;;;7.70;99.90;;;;;;2078969;28;19923;-68
2022/04/08 01:57:38;;;;;;;;;;;7.70;99.90;;;;;;2078732;28;20015;-68
2022/04/08 01:58:38;;;;;;;;;;;7.70;99.90;;;;;;2078834;28;20008;-68
2022/04/08 01:59:39;;;;;;;;;;;7.70;99.90;;;;;;2079000;28;20003;-68
2022/04/08 02:00:40;;;;;;;;;;;7.70;99.90;;;;;;2077102;28;19913;-68
2022/04/08 02:01:40;;;;;;;;;;;7.70;99.90;;;;;;2083715;28;19920;-68
2022/04/08 02:02:41;;;;;;;;;;;7.70;99.90;;;;;;2081319;28;19916;-68
2022/04/08 02:03:41;;;;;;;;;;;7.70;99.90;;;;;;2078634;28;19995;-68
2022/04/08 02:04:41;;;;;;;;;;;7.70;99.90;;;;;;2080471;28;19917;-68
2022/04/08 02:05:42;;;;;;;;;;;7.70;99.90;;;;;;2077963;28;19924;-68
2022/04/08 02:06:42;;;;;;;;;;;7.70;99.90;;;;;;2081542;28;20280;-68
2022/04/08 02:07:43;;;;;;;;;;;7.60;99.90;;;;;;2078048;28;19916;-68
2022/04/08 02:08:43;;;;;;;;;;;7.60;99.90;;;;;;2077214;28;19910;-68
2022/04/08 02:09:44;;;;;;;;;;;7.60;99.90;;;;;;2083266;28;19908;-68
2022/04/08 02:10:44;;;;;;;;;;;7.60;99.90;;;;;;2082060;28;19909;-68
2022/04/08 02:11:45;;;;;;;;;;;7.60;99.90;;;;;;2081676;28;19916;-68
2022/04/08 02:12:45;;;;;;;;;;;7.60;99.90;;;;;;2082203;28;19948;-68
2022/04/08 02:13:46;;;;;;;;;;;7.60;99.90;;;;;;2080032;28;19913;-68
2022/04/08 02:14:46;;;;;;;;;;;7.60;99.90;;;;;;2082228;28;20277;-67
2022/04/08 02:15:47;;;;;;;;;;;7.60;99.90;;;;;;2080638;28;19921;-68
2022/04/08 02:16:47;;;;;;;;;;;7.60;99.90;;;;;;2076948;28;19952;-68
2022/04/08 02:17:48;;;;;;;;;;;7.60;99.90;;;;;;2081655;28;19951;-68
2022/04/08 02:18:48;;;;;;;;;;;7.60;99.90;;;;;;2083935;28;19919;-68
2022/04/08 02:19:49;;;;;;;;;;;7.60;99.90;;;;;;2083161;28;20387;-68
2022/04/08 02:20:51;;;;;;;;;;;7.60;99.90;;;;;;2078556;28;19962;-68
2022/04/08 02:21:51;;;;;;;;;;;7.50;99.90;;;;;;2079558;28;19913;-68
2022/04/08 02:22:51;;;;;;;;;;;7.50;99.90;;;;;;2080724;28;19913;-68
2022/04/08 02:23:52;;;;;;;;;;;7.50;99.90;;;;;;2077205;28;19909;-68
2022/04/08 02:24:53;;;;;;;;;;;7.50;99.90;;;;;;2080047;28;19913;-68
2022/04/08 02:25:53;;;;;;;;;;;7.50;99.90;;;;;;2080192;28;20291;-68
2022/04/08 02:26:54;;;;;;;;;;;7.50;99.90;;;;;;2083826;28;19983;-68
2022/04/08 02:27:55;;;;;;;;;;;7.50;99.90;;;;;;2082911;28;19913;-68
2022/04/08 02:28:55;;;;;;;;;;;7.40;99.90;;;;;;2080264;28;19913;-68
2022/04/08 02:29:58;;;;;;;;;;;7.40;99.90;;;;;;2079782;28;19936;-68
2022/04/08 02:30:58;;;;;;;;;;;7.40;99.90;;;;;;2080076;28;19909;-68
2022/04/08 02:31:59;;;;;;;;;;;7.40;99.90;;;;;;2078142;28;19971;-68
2022/04/08 02:33:01;;;;;;;;;;;7.40;99.90;;;;;;2084771;28;20028;-68
2022/04/08 02:34:02;;;;;;;;;;;7.50;99.90;;;;;;2080179;28;19916;-68
2022/04/08 02:35:02;;;;;;;;;;;7.40;99.90;;;;;;2083193;28;19920;-68
2022/04/08 02:36:03;;;;;;;;;;;7.40;99.90;;;;;;2084479;28;20013;-68
2022/04/08 02:37:04;;;;;;;;;;;7.40;99.90;;;;;;2082867;28;19958;-68
2022/04/08 02:38:05;;;;;;;;;;;7.40;99.90;;;;;;2080777;28;19909;-68
2022/04/08 02:39:05;;;;;;;;;;;7.40;99.90;;;;;;2079319;28;19909;-68
2022/04/08 02:40:06;;;;;;;;;;;7.30;99.90;;;;;;2079384;28;19924;-68
2022/04/08 02:41:06;;;;;;;;;;;7.40;99.90;;;;;;2084526;28;20430;-68
2022/04/08 02:42:07;;;;;;;;;;;7.30;99.90;;;;;;2080911;28;20360;-68
2022/04/08 02:43:07;;;;;;;;;;;7.30;99.90;;;;;;2082491;28;19951;-69
2022/04/08 02:44:08;;;;;;;;;;;7.30;99.90;;;;;;2082231;28;19986;-68
2022/04/08 02:45:09;;;;;;;;;;;7.30;99.90;;;;;;2080597;28;19913;-68
2022/04/08 02:46:09;;;;;;;;;;;7.30;99.90;;;;;;2081860;28;19913;-68
2022/04/08 02:47:10;;;;;;;;;;;7.30;99.90;;;;;;2078881;28;20055;-68
2022/04/08 02:48:13;;;;;;;;;;;7.30;99.90;;;;;;2079415;28;19916;-68
2022/04/08 02:49:14;;;;;;;;;;;7.30;99.90;;;;;;2081894;28;19920;-68
2022/04/08 02:50:14;;;;;;;;;;;7.30;99.90;;;;;;2080812;28;20011;-68
2022/04/08 02:51:15;;;;;;;;;;;7.30;99.90;;;;;;2079304;28;19917;-68
2022/04/08 02:52:15;;;;;;;;;;;7.30;99.90;;;;;;2080258;28;19954;-68
2022/04/08 02:53:16;;;;;;;;;;;7.30;99.90;;;;;;2080301;28;19917;-68
2022/04/08 02:54:16;;;;;;;;;;;7.20;99.90;;;;;;2077844;28;20357;-68
2022/04/08 02:55:16;;;;;;;;;;;7.20;99.90;;;;;;2080577;28;19917;-68
2022/04/08 02:56:17;;;;;;;;;;;7.20;99.90;;;;;;2079233;28;19910;-68
2022/04/08 02:57:17;;;;;;;;;;;7.20;99.90;;;;;;2071860;28;19909;-68
2022/04/08 02:58:18;;;;;;;;;;;7.20;99.90;;;;;;2070776;28;20390;-68
2022/04/08 02:59:18;;;;;;;;;;;7.20;99.90;;;;;;2080029;28;19963;-68
2022/04/08 03:00:19;;;;;;;;;;;7.20;99.90;;;;;;2072152;28;20092;-68
2022/04/08 03:01:20;;;;;;;;;;;7.20;99.90;;;;;;2072645;28;19961;-68
2022/04/08 03:02:20;;;;;;;;;;;7.20;99.90;;;;;;2077152;28;19940;-69
2022/04/08 03:03:21;;;;;;;;;;;7.20;99.90;;;;;;2080252;28;19910;-68
2022/04/08 03:04:21;;;;;;;;;;;7.10;99.90;;;;;;2080692;28;20388;-68
2022/04/08 03:05:22;;;;;;;;;;;7.10;99.90;;;;;;2082715;28;19927;-68
2022/04/08 03:06:22;;;;;;;;;;;7.20;99.90;;;;;;2083881;28;20349;-68
2022/04/08 03:07:23;;;;;;;;;;;7.20;99.90;;;;;;2081448;28;19939;-68
2022/04/08 03:08:23;;;;;;;;;;;7.20;99.90;;;;;;2079204;28;19932;-68
2022/04/08 03:09:24;;;;;;;;;;;7.20;99.90;;;;;;2081436;28;19920;-68
2022/04/08 03:10:24;;;;;;;;;;;7.20;99.90;;;;;;2078421;28;19913;-68
2022/04/08 03:11:24;;;;;;;;;;;7.10;99.90;;;;;;2080445;28;19917;-68
2022/04/08 03:12:25;;;;;;;;;;;7.10;99.90;;;;;;2078846;28;21752;-68
2022/04/08 03:13:25;;;;;;;;;;;7.10;99.90;;;;;;2083279;28;19924;-68
2022/04/08 03:14:26;;;;;;;;;;;7.10;99.90;;;;;;2083714;28;19988;-68
2022/04/08 03:15:26;;;;;;;;;;;7.10;99.90;;;;;;2080720;28;20003;-68
2022/04/08 03:16:27;;;;;;;;;;;7.10;99.90;;;;;;2075836;28;20008;-68
2022/04/08 03:17:27;;;;;;;;;;;7.10;99.90;;;;;;2080339;28;19909;-68
2022/04/08 03:18:28;;;;;;;;;;;7.10;99.90;;;;;;2080684;28;19913;-68
2022/04/08 03:19:28;;;;;;;;;;;7.10;99.90;;;;;;2080187;28;19909;-68
2022/04/08 03:20:28;;;;;;;;;;;7.10;99.90;;;;;;2076330;28;19965;-68
2022/04/08 03:21:30;;;;;;;;;;;7.10;99.90;;;;;;2081373;28;19928;-68
2022/04/08 03:22:31;;;;;;;;;;;7.10;99.90;;;;;;2083152;28;19988;-68
2022/04/08 03:23:31;;;;;;;;;;;7.10;99.90;;;;;;2081473;28;19956;-68
2022/04/08 03:24:32;;;;;;;;;;;7.10;99.90;;;;;;2081738;28;19913;-68
2022/04/08 03:25:32;;;;;;;;;;;7.10;99.90;;;;;;2079036;28;19921;-68
2022/04/08 03:26:33;;;;;;;;;;;7.10;99.90;;;;;;2080451;28;19939;-68
2022/04/08 03:27:33;;;;;;;;;;;7.10;99.90;;;;;;2080459;28;19935;-68
2022/04/08 03:28:34;;;;;;;;;;;7.10;99.90;;;;;;2077911;28;19913;-68
2022/04/08 03:29:35;;;;;;;;;;;7.00;99.90;;;;;;2082276;28;19960;-68
2022/04/08 03:30:36;;;;;;;;;;;7.10;99.90;;;;;;2080423;28;19913;-68
2022/04/08 03:31:36;;;;;;;;;;;7.10;99.90;;;;;;2074867;28;19917;-68
2022/04/08 03:32:36;;;;;;;;;;;7.10;99.90;;;;;;2080000;28;19917;-68
2022/04/08 03:33:37;;;;;;;;;;;7.10;99.90;;;;;;2077925;28;19943;-68
2022/04/08 03:34:38;;;;;;;;;;;7.10;99.90;;;;;;2077500;28;19936;-68
2022/04/08 03:35:38;;;;;;;;;;;7.10;99.90;;;;;;2078989;28;19910;-68
2022/04/08 03:36:39;;;;;;;;;;;7.10;99.90;;;;;;2086092;28;19913;-68
2022/04/08 03:37:39;;;;;;;;;;;7.10;99.90;;;;;;2082233;28;19970;-68
2022/04/08 03:38:39;;;;;;;;;;;7.10;99.90;;;;;;2082329;28;19913;-68
2022/04/08 03:39:40;;;;;;;;;;;7.10;99.90;;;;;;2078845;28;20036;-68
2022/04/08 03:40:40;;;;;;;;;;;7.10;99.90;;;;;;2080132;28;20020;-68
2022/04/08 03:41:41;;;;;;;;;;;7.10;99.90;;;;;;2078346;28;20556;-68
2022/04/08 03:42:41;;;;;;;;;;;7.10;99.90;;;;;;2077261;28;20380;-68
2022/04/08 03:43:42;;;;;;;;;;;7.10;99.90;;;;;;2079065;28;20011;-68
2022/04/08 03:44:42;;;;;;;;;;;7.10;99.90;;;;;;2078703;28;19909;-68
2022/04/08 03:45:42;;;;;;;;;;;7.10;99.90;;;;;;2081765;28;19917;-68
2022/04/08 03:46:46;;;;;;;;;;;7.10;99.90;;;;;;2081816;28;19909;-68
2022/04/08 03:47:47;;;;;;;;;;;7.10;99.90;;;;;;2080395;28;19916;-68
2022/04/08 03:48:48;;;;;;;;;;;7.10;99.90;;;;;;2081527;28;20400;-68
2022/04/08 03:49:48;;;;;;;;;;;7.10;99.90;;;;;;2077879;28;20297;-68
2022/04/08 03:50:49;;;;;;;;;;;7.00;99.90;;;;;;2080602;28;20356;-68
2022/04/08 03:51:49;;;;;;;;;;;7.00;99.90;;;;;;2082213;28;19913;-68
2022/04/08 03:52:50;;;;;;;;;;;7.00;99.90;;;;;;2083475;28;19913;-68
2022/04/08 03:53:50;;;;;;;;;;;7.00;99.90;;;;;;2080604;28;19932;-68
2022/04/08 03:54:51;;;;;;;;;;;7.00;99.90;;;;;;2078942;28;20693;-68
2022/04/08 03:55:51;;;;;;;;;;;7.00;99.90;;;;;;2079301;28;20020;-68
2022/04/08 03:56:51;;;;;;;;;;;7.10;99.90;;;;;;2081776;28;19909;-68
2022/04/08 03:57:52;;;;;;;;;;;7.00;99.90;;;;;;2078056;28;19932;-68
2022/04/08 03:58:52;;;;;;;;;;;7.00;99.90;;;;;;2076928;28;19909;-68
2022/04/08 03:59:53;;;;;;;;;;;7.00;99.90;;;;;;2081356;28;20003;-68
2022/04/08 04:00:54;;;;;;;;;;;7.00;99.90;;;;;;2083011;28;19920;-68
2022/04/08 04:01:54;;;;;;;;;;;7.00;99.90;;;;;;2082931;28;19954;-68
2022/04/08 04:02:55;;;;;;;;;;;7.00;99.90;;;;;;2080089;28;20372;-68
2022/04/08 04:03:56;;;;;;;;;;;7.00;99.90;;;;;;2079533;28;19913;-68
2022/04/08 04:04:59;;;;;;;;;;;7.00;99.90;;;;;;2082099;28;20847;-68
2022/04/08 04:06:01;;;;;;;;;;;7.00;99.90;;;;;;2079584;28;19913;-68
2022/04/08 04:07:01;;;;;;;;;;;7.00;99.90;;;;;;2082294;28;20013;-68
2022/04/08 04:08:02;;;;;;;;;;;7.00;99.90;;;;;;2081551;28;19917;-68
2022/04/08 04:09:02;;;;;;;;;;;7.00;99.90;;;;;;2084683;28;20019;-68
2022/04/08 04:10:03;;;;;;;;;;;7.00;99.90;;;;;;2084686;28;19909;-68
2022/04/08 04:11:04;;;;;;;;;;;7.00;99.90;;;;;;2082259;28;19913;-68
2022/04/08 04:12:04;;;;;;;;;;;7.00;99.90;;;;;;2080848;28;19909;-68
2022/04/08 04:13:05;;;;;;;;;;;7.00;99.90;;;;;;2081216;28;19921;-68
2022/04/08 04:14:06;;;;;;;;;;;7.00;99.90;;;;;;2080975;28;20004;-68
2022/04/08 04:15:08;;;;;;;;;;;7.00;99.90;;;;;;2082263;28;19913;-68
2022/04/08 04:16:08;;;;;;;;;;;7.00;99.90;;;;;;2078791;28;19995;-68
2022/04/08 04:17:09;;;;;;;;;;;7.00;99.90;;;;;;2084026;28;19979;-68
2022/04/08 04:18:09;;;;;;;;;;;7.00;99.90;;;;;;2084358;28;20067;-68
2022/04/08 04:19:10;;;;;;;;;;;7.00;99.90;;;;;;2084120;28;20369;-68
2022/04/08 04:20:10;;;;;;;;;;;7.00;99.90;;;;;;2082712;28;19913;-68
2022/04/08 04:21:12;;;;;;;;;;;7.00;99.90;;;;;;2079986;28;19909;-68
2022/04/08 04:22:13;;;;;;;;;;;7.00;99.90;;;;;;2067304;28;19917;-69
2022/04/08 04:23:13;;;;;;;;;;;7.00;99.90;;;;;;2069153;28;20041;-68
2022/04/08 04:24:14;;;;;;;;;;;7.00;99.90;;;;;;2080887;28;19920;-68
2022/04/08 04:25:15;;;;;;;;;;;7.00;99.90;;;;;;2080309;28;20273;-68
2022/04/08 04:26:15;;;;;;;;;;;7.00;99.90;;;;;;2079028;28;19944;-68
2022/04/08 04:27:15;;;;;;;;;;;7.00;99.90;;;;;;2083752;28;19936;-68
2022/04/08 04:28:16;;;;;;;;;;;7.00;99.90;;;;;;2081028;28;19956;-68
2022/04/08 04:29:16;;;;;;;;;;;7.00;99.90;;;;;;2082882;28;20266;-68
2022/04/08 04:30:17;;;;;;;;;;;7.00;99.90;;;;;;2080538;28;19916;-68
2022/04/08 04:31:17;;;;;;;;;;;7.00;99.90;;;;;;2077908;28;20024;-68
2022/04/08 04:32:19;;;;;;;;;;;7.00;99.90;;;;;;2082897;28;20386;-68
2022/04/08 04:33:19;;;;;;;;;;;7.00;99.90;;;;;;2083259;28;19909;-68
2022/04/08 04:34:19;;;;;;;;;;;7.00;99.90;;;;;;2080866;28;19936;-68
2022/04/08 04:35:20;;;;;;;;;;;7.00;99.90;;;;;;2076470;28;20000;-68
2022/04/08 04:36:21;;;;;;;;;;;7.00;99.90;;;;;;2079445;28;19917;-68
2022/04/08 04:37:21;;;;;;;;;;;6.90;99.90;;;;;;2081404;28;19924;-68
2022/04/08 04:38:22;;;;;;;;;;;6.90;99.90;;;;;;2078163;28;20044;-68
2022/04/08 04:39:22;;;;;;;;;;;7.00;99.90;;;;;;2077904;28;19968;-68
2022/04/08 04:40:23;;;;;;;;;;;6.90;99.90;;;;;;2080372;28;19913;-68
2022/04/08 04:41:23;;;;;;;;;;;6.90;99.90;;;;;;2075708;28;20290;-68
2022/04/08 04:42:26;;;;;;;;;;;6.90;99.90;;;;;;2078989;28;19987;-68
2022/04/08 04:43:26;;;;;;;;;;;6.90;99.90;;;;;;2076447;28;19919;-68
2022/04/08 04:44:27;;;;;;;;;;;7.00;99.90;;;;;;2076524;28;19921;-68
2022/04/08 04:45:27;;;;;;;;;;;6.90;99.90;;;;;;2077627;28;19917;-68
2022/04/08 04:46:28;;;;;;;;;;;6.90;99.90;;;;;;2078264;28;19921;-68
2022/04/08 04:47:28;;;;;;;;;;;6.90;99.90;;;;;;2080883;28;19917;-68
2022/04/08 04:48:29;;;;;;;;;;;7.00;99.90;;;;;;2077089;28;20358;-68
2022/04/08 04:49:30;;;;;;;;;;;6.90;99.90;;;;;;2075929;28;19939;-68
2022/04/08 04:50:30;;;;;;;;;;;6.90;99.90;;;;;;2079241;28;19917;-68
2022/04/08 04:51:31;;;;;;;;;;;6.90;99.90;;;;;;2076780;28;19952;-68
2022/04/08 04:52:31;;;;;;;;;;;6.90;99.90;;;;;;2077294;28;20383;-68
2022/04/08 04:53:31;;;;;;;;;;;6.90;99.90;;;;;;2074717;28;19921;-68
2022/04/08 04:54:32;;;;;;;;;;;6.90;99.90;;;;;;2073705;28;19948;-68
2022/04/08 04:55:32;;;;;;;;;;;6.90;99.90;;;;;;2074586;28;19909;-68
2022/04/08 04:56:33;;;;;;;;;;;6.90;99.90;;;;;;2078091;28;20051;-68
2022/04/08 04:57:34;;;;;;;;;;;6.90;99.90;;;;;;2073857;28;19931;-68
2022/04/08 04:58:34;;;;;;;;;;;6.90;99.90;;;;;;2076251;28;19985;-68
2022/04/08 04:59:35;;;;;;;;;;;6.80;99.90;;;;;;2077416;28;19917;-68
2022/04/08 05:00:35;;;;;;;;;;;6.80;99.90;;;;;;2076011;28;19939;-68
2022/04/08 05:01:35;;;;;;;;;;;6.80;99.90;;;;;;2075988;28;20331;-68
2022/04/08 05:02:36;;;;;;;;;;;6.80;99.90;;;;;;2074011;28;19913;-68
2022/04/08 05:03:36;;;;;;;;;;;6.80;99.90;;;;;;2073166;28;19918;-68
2022/04/08 05:04:37;;;;;;;;;;;6.80;99.90;;;;;;2074082;28;19917;-68
2022/04/08 05:05:38;;;;;;;;;;;6.80;99.90;;;;;;2072558;28;19921;-68
2022/04/08 05:06:38;;;;;;;;;;;6.70;99.90;;;;;;2069337;28;19918;-68
2022/04/08 05:07:39;;;;;;;;;;;6.80;99.90;;;;;;2070053;28;20400;-68
2022/04/08 05:08:40;;;;;;;;;;;6.70;99.90;;;;;;2074101;28;19913;-68
2022/04/08 05:09:41;;;;;;;;;;;6.70;99.90;;;;;;2076093;28;19960;-69
2022/04/08 05:10:41;;;;;;;;;;;6.70;99.90;;;;;;2076063;28;19920;-68
2022/04/08 05:11:42;;;;;;;;;;;6.70;99.90;;;;;;2074008;28;19916;-68
2022/04/08 05:12:42;;;;;;;;;;;6.70;99.90;;;;;;2074972;28;19910;-68
2022/04/08 05:13:43;;;;;;;;;;;6.80;99.90;;;;;;2074701;28;20005;-68
2022/04/08 05:14:43;;;;;;;;;;;6.70;99.90;;;;;;2076942;28;19913;-68
2022/04/08 05:15:45;;;;;;;;;;;6.80;99.90;;;;;;2074726;28;19917;-68
2022/04/08 05:16:45;;;;;;;;;;;6.80;99.90;;;;;;2074709;28;19951;-68
2022/04/08 05:17:46;;;;;;;;;;;6.70;99.90;;;;;;2073419;28;19922;-68
2022/04/08 05:18:47;;;;;;;;;;;6.70;99.90;;;;;;2075419;28;19944;-68
2022/04/08 05:19:47;;;;;;;;;;;6.70;99.90;;;;;;2079041;28;19917;-68
2022/04/08 05:20:52;;;;;;;;;;;6.80;99.90;;;;;;2076918;28;20564;-68
2022/04/08 05:21:52;;;;;;;;;;;6.80;99.90;;;;;;2070441;28;20004;-69
2022/04/08 05:22:53;;;;;;;;;;;6.80;99.90;;;;;;2073515;28;19918;-68
2022/04/08 05:23:53;;;;;;;;;;;6.80;99.90;;;;;;2074320;28;22441;-68
2022/04/08 05:24:54;;;;;;;;;;;6.80;99.90;;;;;;2076960;28;20304;-68
2022/04/08 05:25:58;;;;;;;;;;;6.80;99.90;;;;;;2080304;28;19920;-68
2022/04/08 05:26:58;;;;;;;;;;;6.80;99.90;;;;;;2077348;28;19917;-68
2022/04/08 05:27:59;;;;;;;;;;;6.80;99.90;;;;;;2077920;28;19967;-68
2022/04/08 05:28:59;;;;;;;;;;;6.80;99.90;;;;;;2076454;28;19925;-68
2022/04/08 05:30:03;;;;;;;;;;;6.80;99.90;;;;;;2077085;28;19919;-68
2022/04/08 05:31:04;;;;;;;;;;;6.80;99.90;;;;;;2076999;28;19963;-68
2022/04/08 05:32:04;;;;;;;;;;;6.90;99.90;;;;;;2077136;28;19921;-68
2022/04/08 05:33:05;;;;;;;;;;;6.90;99.90;;;;;;2079036;28;20284;-68
2022/04/08 05:34:05;;;;;;;;;;;6.90;99.90;;;;;;2077864;28;19918;-68
2022/04/08 05:35:06;;;;;;;;;;;6.90;99.90;;;;;;2078473;28;19922;-68
2022/04/08 05:36:06;;;;;;;;;;;6.90;99.90;;;;;;2080833;28;19921;-68
2022/04/08 05:37:07;;;;;;;;;;;6.90;99.90;;;;;;2075591;28;19917;-68
2022/04/08 05:38:08;;;;;;;;;;;6.90;99.90;;;;;;2075791;28;20272;-68
2022/04/08 05:39:08;;;;;;;;;;;6.90;99.90;;;;;;2076451;28;20000;-68
2022/04/08 05:40:10;;;;;;;;;;;6.90;99.90;;;;;;2076954;28;19916;-68
2022/04/08 05:41:11;;;;;;;;;;;6.90;99.90;;;;;;2075249;28;20000;-68
2022/04/08 05:42:11;;;;;;;;;;;6.90;99.90;;;;;;2078262;28;19913;-68
2022/04/08 05:43:12;;;;;;;;;;;6.90;99.90;;;;;;2078210;28;20416;-68
2022/04/08 05:44:12;;;;;;;;;;;6.90;99.90;;;;;;2078017;28;19913;-68
2022/04/08 05:45:14;;;;;;;;;;;6.90;99.90;;;;;;2075560;28;20364;-68
2022/04/08 05:46:14;;;;;;;;;;;6.90;99.90;;;;;;2072476;28;20088;-68
2022/04/08 05:47:15;;;;;;;;;;;6.90;99.90;;;;;;2070324;28;19913;-70
2022/04/08 05:48:15;;;;;;;;;;;6.90;99.90;;;;;;2068437;28;19920;-68
2022/04/08 05:49:17;;;;;;;;;;;6.90;99.90;;;;;;2074904;28;20502;-68
2022/04/08 05:50:19;;;;;;;;;;;6.90;99.90;;;;;;2077908;28;19961;-68
2022/04/08 05:51:19;;;;;;;;;;;7.00;99.90;;;;;;2077109;28;20345;-68
2022/04/08 05:52:19;;;;;;;;;;;7.00;99.90;;;;;;2066483;28;19918;-68
2022/04/08 05:53:22;;;;;;;;;;;7.00;99.90;;;;;;2072659;28;19917;-68
2022/04/08 05:54:22;;;;;;;;;;;7.00;99.90;;;;;;2075797;28;19913;-68
2022/04/08 05:55:23;;;;;;;;;;;7.10;99.90;;;;;;2074545;28;19913;-68
2022/04/08 05:56:23;;;;;;;;;;;7.10;99.90;;;;;;2075254;28;19913;-68
2022/04/08 05:57:24;;;;;;;;;;;7.10;99.90;;;;;;2076618;28;19992;-68
2022/04/08 05:58:24;;;;;;;;;;;7.20;99.90;;;;;;2075440;28;19919;-68